sensor_id;sensor_type;location;lat;lon;timestamp;P1;durP1;ratioP1;P2;durP2;ratioP2
20695;SDS011;10507;52.754;13.040;2023-05-16T00:01:36;12.55;;;9.60;;
20695;SDS011;10507;52.754;13.040;2023-05-16T00:04:04;10.95;;;9.63;;
20695;SDS011;10507;52.754;13.040;2023-05-16T00:06:32;13.05;;;10.07;;
20695;SDS011;10507;52.754;13.040;2023-05-16T00:09:01;12.40;;;9.88;;
20695;SDS011;10507;52.754;13.040;2023-05-16T00:11:29;17.15;;;9.75;;
20695;SDS011;10507;52.754;13.040;2023-05-16T00:13:58;13.25;;;10.20;;
20695;SDS011;10507;52.754;13.040;2023-05-16T00:16:26;11.60;;;9.55;;
20695;SDS011;10507;52.754;13.040;2023-05-16T00:18:55;13.20;;;10.70;;
20695;SDS011;10507;52.754;13.040;2023-05-16T00:21:25;16.90;;;11.45;;
20695;SDS011;10507;52.754;13.040;2023-05-16T00:23:52;14.25;;;11.10;;
20695;SDS011;10507;52.754;13.040;2023-05-16T00:26:20;13.57;;;11.35;;
20695;SDS011;10507;52.754;13.040;2023-05-16T00:28:48;15.95;;;12.07;;
20695;SDS011;10507;52.754;13.040;2023-05-16T00:31:17;18.48;;;12.88;;
20695;SDS011;10507;52.754;13.040;2023-05-16T00:33:46;15.80;;;11.82;;
20695;SDS011;10507;52.754;13.040;2023-05-16T00:36:14;17.35;;;12.43;;
20695;SDS011;10507;52.754;13.040;2023-05-16T00:38:42;15.65;;;12.63;;
20695;SDS011;10507;52.754;13.040;2023-05-16T00:41:10;17.35;;;13.38;;
20695;SDS011;10507;52.754;13.040;2023-05-16T00:43:38;18.45;;;12.55;;
20695;SDS011;10507;52.754;13.040;2023-05-16T00:46:06;18.35;;;13.02;;
20695;SDS011;10507;52.754;13.040;2023-05-16T00:48:35;17.35;;;12.35;;
20695;SDS011;10507;52.754;13.040;2023-05-16T00:51:03;15.52;;;13.30;;
20695;SDS011;10507;52.754;13.040;2023-05-16T00:53:34;15.60;;;12.50;;
20695;SDS011;10507;52.754;13.040;2023-05-16T00:56:02;17.90;;;12.57;;
20695;SDS011;10507;52.754;13.040;2023-05-16T00:58:32;17.00;;;12.73;;
20695;SDS011;10507;52.754;13.040;2023-05-16T01:01:00;21.27;;;12.55;;
20695;SDS011;10507;52.754;13.040;2023-05-16T01:03:29;19.83;;;13.07;;
20695;SDS011;10507;52.754;13.040;2023-05-16T01:05:58;17.20;;;12.90;;
20695;SDS011;10507;52.754;13.040;2023-05-16T01:08:26;18.23;;;11.93;;
20695;SDS011;10507;52.754;13.040;2023-05-16T01:10:57;18.83;;;13.73;;
20695;SDS011;10507;52.754;13.040;2023-05-16T01:13:35;20.35;;;13.18;;
20695;SDS011;10507;52.754;13.040;2023-05-16T01:16:11;18.20;;;12.55;;
20695;SDS011;10507;52.754;13.040;2023-05-16T01:18:45;17.70;;;12.50;;
20695;SDS011;10507;52.754;13.040;2023-05-16T01:21:26;18.88;;;11.98;;
20695;SDS011;10507;52.754;13.040;2023-05-16T01:24:08;18.40;;;12.93;;
20695;SDS011;10507;52.754;13.040;2023-05-16T01:26:43;17.65;;;11.90;;
20695;SDS011;10507;52.754;13.040;2023-05-16T01:29:13;21.13;;;13.35;;
20695;SDS011;10507;52.754;13.040;2023-05-16T01:31:41;18.30;;;12.75;;
20695;SDS011;10507;52.754;13.040;2023-05-16T01:34:09;19.52;;;12.63;;
20695;SDS011;10507;52.754;13.040;2023-05-16T01:36:39;18.92;;;12.45;;
20695;SDS011;10507;52.754;13.040;2023-05-16T01:39:13;15.43;;;12.52;;
20695;SDS011;10507;52.754;13.040;2023-05-16T01:41:50;19.73;;;12.65;;
20695;SDS011;10507;52.754;13.040;2023-05-16T01:44:24;20.52;;;12.77;;
20695;SDS011;10507;52.754;13.040;2023-05-16T01:46:58;17.13;;;11.73;;
20695;SDS011;10507;52.754;13.040;2023-05-16T01:49:30;21.25;;;12.10;;
20695;SDS011;10507;52.754;13.040;2023-05-16T01:52:04;16.83;;;12.30;;
20695;SDS011;10507;52.754;13.040;2023-05-16T01:54:34;18.10;;;11.52;;
20695;SDS011;10507;52.754;13.040;2023-05-16T01:57:06;15.77;;;12.60;;
20695;SDS011;10507;52.754;13.040;2023-05-16T01:59:35;17.30;;;12.85;;
20695;SDS011;10507;52.754;13.040;2023-05-16T02:02:05;18.63;;;12.55;;
20695;SDS011;10507;52.754;13.040;2023-05-16T02:04:32;18.73;;;12.30;;
20695;SDS011;10507;52.754;13.040;2023-05-16T02:07:00;15.82;;;12.85;;
20695;SDS011;10507;52.754;13.040;2023-05-16T02:09:28;20.42;;;11.90;;
20695;SDS011;10507;52.754;13.040;2023-05-16T02:11:56;20.42;;;13.23;;
20695;SDS011;10507;52.754;13.040;2023-05-16T02:14:25;18.15;;;12.43;;
20695;SDS011;10507;52.754;13.040;2023-05-16T02:16:53;17.42;;;11.98;;
20695;SDS011;10507;52.754;13.040;2023-05-16T02:19:21;16.33;;;12.25;;
20695;SDS011;10507;52.754;13.040;2023-05-16T02:21:48;16.40;;;11.80;;
20695;SDS011;10507;52.754;13.040;2023-05-16T02:24:17;19.45;;;13.27;;
20695;SDS011;10507;52.754;13.040;2023-05-16T02:26:47;18.58;;;13.07;;
20695;SDS011;10507;52.754;13.040;2023-05-16T02:29:14;20.60;;;14.07;;
20695;SDS011;10507;52.754;13.040;2023-05-16T02:31:44;21.10;;;14.93;;
20695;SDS011;10507;52.754;13.040;2023-05-16T02:34:12;19.15;;;13.85;;
20695;SDS011;10507;52.754;13.040;2023-05-16T02:36:40;20.70;;;14.43;;
20695;SDS011;10507;52.754;13.040;2023-05-16T02:39:08;20.42;;;14.20;;
20695;SDS011;10507;52.754;13.040;2023-05-16T02:41:36;18.63;;;14.35;;
20695;SDS011;10507;52.754;13.040;2023-05-16T02:44:04;19.13;;;14.40;;
20695;SDS011;10507;52.754;13.040;2023-05-16T02:46:32;19.20;;;14.38;;
20695;SDS011;10507;52.754;13.040;2023-05-16T02:49:03;19.48;;;14.55;;
20695;SDS011;10507;52.754;13.040;2023-05-16T02:51:31;21.60;;;14.13;;
20695;SDS011;10507;52.754;13.040;2023-05-16T02:53:58;21.35;;;14.02;;
20695;SDS011;10507;52.754;13.040;2023-05-16T02:56:26;22.00;;;14.57;;
20695;SDS011;10507;52.754;13.040;2023-05-16T02:58:54;19.15;;;15.00;;
20695;SDS011;10507;52.754;13.040;2023-05-16T03:01:22;18.83;;;15.23;;
20695;SDS011;10507;52.754;13.040;2023-05-16T03:03:50;19.52;;;15.70;;
20695;SDS011;10507;52.754;13.040;2023-05-16T03:06:19;21.00;;;15.52;;
20695;SDS011;10507;52.754;13.040;2023-05-16T03:08:47;22.75;;;15.82;;
20695;SDS011;10507;52.754;13.040;2023-05-16T03:11:15;23.35;;;16.13;;
20695;SDS011;10507;52.754;13.040;2023-05-16T03:13:45;20.30;;;14.88;;
20695;SDS011;10507;52.754;13.040;2023-05-16T03:16:13;25.98;;;15.32;;
20695;SDS011;10507;52.754;13.040;2023-05-16T03:18:42;23.15;;;16.40;;
20695;SDS011;10507;52.754;13.040;2023-05-16T03:21:10;22.38;;;17.85;;
20695;SDS011;10507;52.754;13.040;2023-05-16T03:23:40;24.10;;;16.35;;
20695;SDS011;10507;52.754;13.040;2023-05-16T03:26:07;21.98;;;17.02;;
20695;SDS011;10507;52.754;13.040;2023-05-16T03:28:36;22.75;;;16.63;;
20695;SDS011;10507;52.754;13.040;2023-05-16T03:31:03;22.85;;;16.13;;
20695;SDS011;10507;52.754;13.040;2023-05-16T03:33:31;24.02;;;17.20;;
20695;SDS011;10507;52.754;13.040;2023-05-16T03:35:59;22.58;;;16.67;;
20695;SDS011;10507;52.754;13.040;2023-05-16T03:38:27;21.30;;;16.70;;
20695;SDS011;10507;52.754;13.040;2023-05-16T03:40:56;21.73;;;16.02;;
20695;SDS011;10507;52.754;13.040;2023-05-16T03:43:24;20.88;;;15.75;;
20695;SDS011;10507;52.754;13.040;2023-05-16T03:45:52;21.30;;;16.70;;
20695;SDS011;10507;52.754;13.040;2023-05-16T03:48:20;22.67;;;17.08;;
20695;SDS011;10507;52.754;13.040;2023-05-16T03:50:48;21.60;;;16.65;;
20695;SDS011;10507;52.754;13.040;2023-05-16T03:53:16;23.27;;;16.15;;
20695;SDS011;10507;52.754;13.040;2023-05-16T03:55:44;21.92;;;15.23;;
20695;SDS011;10507;52.754;13.040;2023-05-16T03:58:15;21.30;;;14.73;;
20695;SDS011;10507;52.754;13.040;2023-05-16T04:00:43;20.23;;;15.27;;
20695;SDS011;10507;52.754;13.040;2023-05-16T04:03:12;23.58;;;13.75;;
20695;SDS011;10507;52.754;13.040;2023-05-16T04:05:40;19.50;;;14.35;;
20695;SDS011;10507;52.754;13.040;2023-05-16T04:08:08;21.58;;;14.27;;
20695;SDS011;10507;52.754;13.040;2023-05-16T04:10:36;18.67;;;13.43;;
20695;SDS011;10507;52.754;13.040;2023-05-16T04:13:04;18.83;;;14.07;;
20695;SDS011;10507;52.754;13.040;2023-05-16T04:15:33;19.13;;;14.05;;
20695;SDS011;10507;52.754;13.040;2023-05-16T04:18:01;22.75;;;14.15;;
20695;SDS011;10507;52.754;13.040;2023-05-16T04:20:30;19.77;;;14.40;;
20695;SDS011;10507;52.754;13.040;2023-05-16T04:22:58;19.38;;;14.45;;
20695;SDS011;10507;52.754;13.040;2023-05-16T04:25:26;19.63;;;12.82;;
20695;SDS011;10507;52.754;13.040;2023-05-16T04:27:54;20.55;;;14.13;;
20695;SDS011;10507;52.754;13.040;2023-05-16T04:30:22;19.65;;;13.93;;
20695;SDS011;10507;52.754;13.040;2023-05-16T04:32:51;18.42;;;13.60;;
20695;SDS011;10507;52.754;13.040;2023-05-16T04:35:19;20.88;;;13.98;;
20695;SDS011;10507;52.754;13.040;2023-05-16T04:37:48;17.67;;;12.68;;
20695;SDS011;10507;52.754;13.040;2023-05-16T04:40:16;21.88;;;13.82;;
20695;SDS011;10507;52.754;13.040;2023-05-16T04:42:44;21.30;;;13.68;;
20695;SDS011;10507;52.754;13.040;2023-05-16T04:45:12;19.60;;;12.93;;
20695;SDS011;10507;52.754;13.040;2023-05-16T04:47:39;20.55;;;13.52;;
20695;SDS011;10507;52.754;13.040;2023-05-16T04:50:12;16.33;;;11.27;;
20695;SDS011;10507;52.754;13.040;2023-05-16T04:52:41;21.23;;;13.23;;
20695;SDS011;10507;52.754;13.040;2023-05-16T04:55:12;18.02;;;12.45;;
20695;SDS011;10507;52.754;13.040;2023-05-16T04:57:42;17.88;;;11.32;;
20695;SDS011;10507;52.754;13.040;2023-05-16T05:00:11;16.70;;;12.05;;
20695;SDS011;10507;52.754;13.040;2023-05-16T05:02:39;16.33;;;12.00;;
20695;SDS011;10507;52.754;13.040;2023-05-16T05:05:09;17.05;;;12.15;;
20695;SDS011;10507;52.754;13.040;2023-05-16T05:07:38;20.05;;;12.45;;
20695;SDS011;10507;52.754;13.040;2023-05-16T05:10:06;21.77;;;12.75;;
20695;SDS011;10507;52.754;13.040;2023-05-16T05:12:36;15.23;;;11.15;;
20695;SDS011;10507;52.754;13.040;2023-05-16T05:15:05;13.85;;;10.82;;
20695;SDS011;10507;52.754;13.040;2023-05-16T05:17:34;18.88;;;11.13;;
20695;SDS011;10507;52.754;13.040;2023-05-16T05:20:03;17.15;;;10.95;;
20695;SDS011;10507;52.754;13.040;2023-05-16T05:22:35;14.40;;;10.02;;
20695;SDS011;10507;52.754;13.040;2023-05-16T05:25:05;19.30;;;11.95;;
20695;SDS011;10507;52.754;13.040;2023-05-16T05:27:33;14.35;;;10.77;;
20695;SDS011;10507;52.754;13.040;2023-05-16T05:30:01;18.55;;;10.65;;
20695;SDS011;10507;52.754;13.040;2023-05-16T05:32:31;13.43;;;9.77;;
20695;SDS011;10507;52.754;13.040;2023-05-16T05:34:59;16.70;;;9.73;;
20695;SDS011;10507;52.754;13.040;2023-05-16T05:37:27;17.17;;;9.48;;
20695;SDS011;10507;52.754;13.040;2023-05-16T05:39:56;17.98;;;9.30;;
20695;SDS011;10507;52.754;13.040;2023-05-16T05:42:27;16.98;;;9.20;;
20695;SDS011;10507;52.754;13.040;2023-05-16T05:44:55;17.30;;;9.45;;
20695;SDS011;10507;52.754;13.040;2023-05-16T05:47:23;13.80;;;8.65;;
20695;SDS011;10507;52.754;13.040;2023-05-16T05:49:51;15.90;;;8.07;;
20695;SDS011;10507;52.754;13.040;2023-05-16T05:52:18;15.52;;;8.27;;
20695;SDS011;10507;52.754;13.040;2023-05-16T05:54:46;14.18;;;8.77;;
20695;SDS011;10507;52.754;13.040;2023-05-16T05:57:14;9.25;;;7.13;;
20695;SDS011;10507;52.754;13.040;2023-05-16T05:59:43;12.80;;;7.97;;
20695;SDS011;10507;52.754;13.040;2023-05-16T06:02:12;9.73;;;6.60;;
20695;SDS011;10507;52.754;13.040;2023-05-16T06:04:40;11.10;;;7.60;;
20695;SDS011;10507;52.754;13.040;2023-05-16T06:07:08;9.07;;;6.43;;
20695;SDS011;10507;52.754;13.040;2023-05-16T06:09:36;9.93;;;7.22;;
20695;SDS011;10507;52.754;13.040;2023-05-16T06:12:04;9.93;;;5.78;;
20695;SDS011;10507;52.754;13.040;2023-05-16T06:14:32;8.65;;;6.53;;
20695;SDS011;10507;52.754;13.040;2023-05-16T06:17:01;8.80;;;5.95;;
20695;SDS011;10507;52.754;13.040;2023-05-16T06:19:29;10.38;;;6.47;;
20695;SDS011;10507;52.754;13.040;2023-05-16T06:21:57;7.72;;;5.53;;
20695;SDS011;10507;52.754;13.040;2023-05-16T06:24:25;11.05;;;5.13;;
20695;SDS011;10507;52.754;13.040;2023-05-16T06:26:55;7.28;;;4.90;;
20695;SDS011;10507;52.754;13.040;2023-05-16T06:29:23;7.68;;;4.90;;
20695;SDS011;10507;52.754;13.040;2023-05-16T06:31:51;9.95;;;5.03;;
20695;SDS011;10507;52.754;13.040;2023-05-16T06:34:20;11.15;;;5.25;;
20695;SDS011;10507;52.754;13.040;2023-05-16T06:36:52;8.70;;;5.05;;
20695;SDS011;10507;52.754;13.040;2023-05-16T06:39:20;7.03;;;4.20;;
20695;SDS011;10507;52.754;13.040;2023-05-16T06:41:48;7.72;;;4.40;;
20695;SDS011;10507;52.754;13.040;2023-05-16T06:44:16;10.45;;;4.18;;
20695;SDS011;10507;52.754;13.040;2023-05-16T06:46:43;6.97;;;4.47;;
20695;SDS011;10507;52.754;13.040;2023-05-16T06:49:11;6.57;;;4.00;;
20695;SDS011;10507;52.754;13.040;2023-05-16T06:51:40;6.63;;;3.92;;
20695;SDS011;10507;52.754;13.040;2023-05-16T06:54:08;8.63;;;4.63;;
20695;SDS011;10507;52.754;13.040;2023-05-16T06:56:36;6.72;;;3.63;;
20695;SDS011;10507;52.754;13.040;2023-05-16T06:59:04;6.35;;;4.20;;
20695;SDS011;10507;52.754;13.040;2023-05-16T07:01:32;5.68;;;3.13;;
20695;SDS011;10507;52.754;13.040;2023-05-16T07:04:00;7.95;;;3.75;;
20695;SDS011;10507;52.754;13.040;2023-05-16T07:06:28;5.93;;;2.80;;
20695;SDS011;10507;52.754;13.040;2023-05-16T07:08:57;7.50;;;3.13;;
20695;SDS011;10507;52.754;13.040;2023-05-16T07:11:25;5.38;;;2.38;;
20695;SDS011;10507;52.754;13.040;2023-05-16T07:13:53;7.65;;;3.13;;
20695;SDS011;10507;52.754;13.040;2023-05-16T07:16:21;5.97;;;2.85;;
20695;SDS011;10507;52.754;13.040;2023-05-16T07:18:49;4.13;;;2.42;;
20695;SDS011;10507;52.754;13.040;2023-05-16T07:21:17;4.07;;;2.20;;
20695;SDS011;10507;52.754;13.040;2023-05-16T07:23:45;5.95;;;2.58;;
20695;SDS011;10507;52.754;13.040;2023-05-16T07:26:14;7.05;;;2.17;;
20695;SDS011;10507;52.754;13.040;2023-05-16T07:28:42;5.78;;;2.63;;
20695;SDS011;10507;52.754;13.040;2023-05-16T07:31:10;5.47;;;2.33;;
20695;SDS011;10507;52.754;13.040;2023-05-16T07:33:38;3.45;;;2.30;;
20695;SDS011;10507;52.754;13.040;2023-05-16T07:36:06;13.27;;;3.50;;
20695;SDS011;10507;52.754;13.040;2023-05-16T07:38:40;5.00;;;2.42;;
20695;SDS011;10507;52.754;13.040;2023-05-16T07:41:08;6.47;;;2.10;;
20695;SDS011;10507;52.754;13.040;2023-05-16T07:43:37;3.85;;;2.38;;
20695;SDS011;10507;52.754;13.040;2023-05-16T07:46:05;4.00;;;1.90;;
20695;SDS011;10507;52.754;13.040;2023-05-16T07:48:33;6.13;;;2.08;;
20695;SDS011;10507;52.754;13.040;2023-05-16T07:51:01;6.22;;;2.25;;
20695;SDS011;10507;52.754;13.040;2023-05-16T07:53:29;5.07;;;2.13;;
20695;SDS011;10507;52.754;13.040;2023-05-16T07:55:57;4.88;;;1.70;;
20695;SDS011;10507;52.754;13.040;2023-05-16T07:58:25;5.10;;;1.63;;
20695;SDS011;10507;52.754;13.040;2023-05-16T08:00:55;8.50;;;2.17;;
20695;SDS011;10507;52.754;13.040;2023-05-16T08:03:23;5.43;;;2.08;;
20695;SDS011;10507;52.754;13.040;2023-05-16T08:05:51;5.50;;;2.00;;
20695;SDS011;10507;52.754;13.040;2023-05-16T08:08:19;4.28;;;1.67;;
20695;SDS011;10507;52.754;13.040;2023-05-16T08:10:47;5.15;;;2.20;;
20695;SDS011;10507;52.754;13.040;2023-05-16T08:13:15;7.25;;;1.50;;
20695;SDS011;10507;52.754;13.040;2023-05-16T08:15:43;3.88;;;1.30;;
20695;SDS011;10507;52.754;13.040;2023-05-16T08:18:12;4.80;;;1.40;;
20695;SDS011;10507;52.754;13.040;2023-05-16T08:20:41;7.53;;;1.75;;
20695;SDS011;10507;52.754;13.040;2023-05-16T08:23:09;5.50;;;1.63;;
20695;SDS011;10507;52.754;13.040;2023-05-16T08:25:37;5.35;;;1.50;;
20695;SDS011;10507;52.754;13.040;2023-05-16T08:28:05;4.32;;;1.10;;
20695;SDS011;10507;52.754;13.040;2023-05-16T08:30:33;2.35;;;1.33;;
20695;SDS011;10507;52.754;13.040;2023-05-16T08:33:01;5.32;;;1.40;;
20695;SDS011;10507;52.754;13.040;2023-05-16T08:35:32;4.95;;;1.48;;
20695;SDS011;10507;52.754;13.040;2023-05-16T08:38:01;5.15;;;1.55;;
20695;SDS011;10507;52.754;13.040;2023-05-16T08:40:29;4.28;;;1.30;;
20695;SDS011;10507;52.754;13.040;2023-05-16T08:42:57;6.57;;;1.58;;
20695;SDS011;10507;52.754;13.040;2023-05-16T08:45:25;6.40;;;1.27;;
20695;SDS011;10507;52.754;13.040;2023-05-16T08:47:53;8.63;;;2.10;;
20695;SDS011;10507;52.754;13.040;2023-05-16T08:50:22;4.85;;;1.60;;
20695;SDS011;10507;52.754;13.040;2023-05-16T08:52:52;7.65;;;1.80;;
20695;SDS011;10507;52.754;13.040;2023-05-16T08:55:21;7.45;;;2.03;;
20695;SDS011;10507;52.754;13.040;2023-05-16T08:57:49;3.75;;;1.30;;
20695;SDS011;10507;52.754;13.040;2023-05-16T09:00:18;4.57;;;1.17;;
20695;SDS011;10507;52.754;13.040;2023-05-16T09:02:48;6.60;;;1.77;;
20695;SDS011;10507;52.754;13.040;2023-05-16T09:05:16;4.88;;;1.80;;
20695;SDS011;10507;52.754;13.040;2023-05-16T09:07:44;7.03;;;2.03;;
20695;SDS011;10507;52.754;13.040;2023-05-16T09:10:14;4.60;;;1.50;;
20695;SDS011;10507;52.754;13.040;2023-05-16T09:12:42;5.97;;;1.73;;
20695;SDS011;10507;52.754;13.040;2023-05-16T09:15:10;5.95;;;1.33;;
20695;SDS011;10507;52.754;13.040;2023-05-16T09:17:38;5.15;;;1.23;;
20695;SDS011;10507;52.754;13.040;2023-05-16T09:20:08;5.35;;;1.55;;
20695;SDS011;10507;52.754;13.040;2023-05-16T09:22:37;4.55;;;1.50;;
20695;SDS011;10507;52.754;13.040;2023-05-16T09:25:06;6.55;;;1.42;;
20695;SDS011;10507;52.754;13.040;2023-05-16T09:27:55;5.18;;;1.67;;
20695;SDS011;10507;52.754;13.040;2023-05-16T09:30:27;4.68;;;1.67;;
20695;SDS011;10507;52.754;13.040;2023-05-16T09:32:56;4.65;;;1.92;;
20695;SDS011;10507;52.754;13.040;2023-05-16T09:35:25;5.18;;;1.50;;
20695;SDS011;10507;52.754;13.040;2023-05-16T09:38:12;4.43;;;1.63;;
20695;SDS011;10507;52.754;13.040;2023-05-16T09:40:41;6.25;;;1.83;;
20695;SDS011;10507;52.754;13.040;2023-05-16T09:43:11;7.22;;;1.60;;
20695;SDS011;10507;52.754;13.040;2023-05-16T09:45:44;6.75;;;1.48;;
20695;SDS011;10507;52.754;13.040;2023-05-16T09:48:13;8.80;;;3.05;;
20695;SDS011;10507;52.754;13.040;2023-05-16T09:50:45;8.43;;;1.67;;
20695;SDS011;10507;52.754;13.040;2023-05-16T09:53:16;4.85;;;1.63;;
20695;SDS011;10507;52.754;13.040;2023-05-16T09:55:45;7.60;;;2.00;;
20695;SDS011;10507;52.754;13.040;2023-05-16T09:58:17;8.75;;;2.35;;
20695;SDS011;10507;52.754;13.040;2023-05-16T10:00:44;7.00;;;1.77;;
20695;SDS011;10507;52.754;13.040;2023-05-16T10:03:13;10.57;;;2.10;;
20695;SDS011;10507;52.754;13.040;2023-05-16T10:05:42;13.05;;;1.85;;
20695;SDS011;10507;52.754;13.040;2023-05-16T10:08:09;7.50;;;1.60;;
20695;SDS011;10507;52.754;13.040;2023-05-16T10:10:38;5.90;;;2.10;;
20695;SDS011;10507;52.754;13.040;2023-05-16T10:13:06;5.78;;;1.70;;
20695;SDS011;10507;52.754;13.040;2023-05-16T10:15:37;7.43;;;1.38;;
20695;SDS011;10507;52.754;13.040;2023-05-16T10:18:06;5.68;;;1.88;;
20695;SDS011;10507;52.754;13.040;2023-05-16T10:20:38;17.50;;;2.35;;
20695;SDS011;10507;52.754;13.040;2023-05-16T10:23:08;10.00;;;2.30;;
20695;SDS011;10507;52.754;13.040;2023-05-16T10:25:39;4.70;;;1.60;;
20695;SDS011;10507;52.754;13.040;2023-05-16T10:28:12;8.85;;;2.58;;
20695;SDS011;10507;52.754;13.040;2023-05-16T10:30:43;9.43;;;2.20;;
20695;SDS011;10507;52.754;13.040;2023-05-16T10:33:12;14.70;;;2.50;;
20695;SDS011;10507;52.754;13.040;2023-05-16T10:35:42;8.35;;;1.90;;
20695;SDS011;10507;52.754;13.040;2023-05-16T10:38:11;12.55;;;2.30;;
20695;SDS011;10507;52.754;13.040;2023-05-16T10:40:41;7.63;;;2.00;;
20695;SDS011;10507;52.754;13.040;2023-05-16T10:43:09;9.27;;;2.00;;
20695;SDS011;10507;52.754;13.040;2023-05-16T10:45:40;11.25;;;2.28;;
20695;SDS011;10507;52.754;13.040;2023-05-16T10:48:11;11.10;;;1.92;;
20695;SDS011;10507;52.754;13.040;2023-05-16T10:50:41;8.50;;;1.70;;
20695;SDS011;10507;52.754;13.040;2023-05-16T10:53:13;10.45;;;2.22;;
20695;SDS011;10507;52.754;13.040;2023-05-16T10:58:39;10.65;;;2.28;;
20695;SDS011;10507;52.754;13.040;2023-05-16T11:01:19;8.32;;;1.85;;
20695;SDS011;10507;52.754;13.040;2023-05-16T11:04:04;6.00;;;1.60;;
20695;SDS011;10507;52.754;13.040;2023-05-16T11:06:34;7.53;;;1.65;;
20695;SDS011;10507;52.754;13.040;2023-05-16T11:09:23;9.32;;;1.58;;
20695;SDS011;10507;52.754;13.040;2023-05-16T11:11:54;8.02;;;1.80;;
20695;SDS011;10507;52.754;13.040;2023-05-16T11:14:24;8.75;;;1.75;;
20695;SDS011;10507;52.754;13.040;2023-05-16T11:16:59;7.75;;;1.77;;
20695;SDS011;10507;52.754;13.040;2023-05-16T11:19:30;7.95;;;2.00;;
20695;SDS011;10507;52.754;13.040;2023-05-16T11:22:03;9.52;;;1.83;;
20695;SDS011;10507;52.754;13.040;2023-05-16T11:24:35;7.53;;;1.80;;
20695;SDS011;10507;52.754;13.040;2023-05-16T11:27:04;7.45;;;1.75;;
20695;SDS011;10507;52.754;13.040;2023-05-16T11:29:33;6.38;;;1.55;;
20695;SDS011;10507;52.754;13.040;2023-05-16T11:32:03;6.22;;;1.60;;
20695;SDS011;10507;52.754;13.040;2023-05-16T11:34:34;10.75;;;2.22;;
20695;SDS011;10507;52.754;13.040;2023-05-16T11:37:03;7.38;;;1.50;;
20695;SDS011;10507;52.754;13.040;2023-05-16T11:39:31;8.32;;;1.50;;
20695;SDS011;10507;52.754;13.040;2023-05-16T11:41:59;7.90;;;1.75;;
20695;SDS011;10507;52.754;13.040;2023-05-16T11:44:27;5.78;;;1.50;;
20695;SDS011;10507;52.754;13.040;2023-05-16T11:46:55;7.57;;;1.50;;
20695;SDS011;10507;52.754;13.040;2023-05-16T11:49:23;6.88;;;1.35;;
20695;SDS011;10507;52.754;13.040;2023-05-16T11:51:54;5.32;;;1.55;;
20695;SDS011;10507;52.754;13.040;2023-05-16T11:54:22;8.50;;;1.00;;
20695;SDS011;10507;52.754;13.040;2023-05-16T11:56:50;7.50;;;1.38;;
20695;SDS011;10507;52.754;13.040;2023-05-16T11:59:18;6.93;;;1.65;;
20695;SDS011;10507;52.754;13.040;2023-05-16T12:01:47;6.20;;;1.50;;
20695;SDS011;10507;52.754;13.040;2023-05-16T12:04:16;8.18;;;1.67;;
20695;SDS011;10507;52.754;13.040;2023-05-16T12:06:56;7.07;;;1.60;;
20695;SDS011;10507;52.754;13.040;2023-05-16T12:09:27;6.15;;;1.42;;
20695;SDS011;10507;52.754;13.040;2023-05-16T12:11:55;7.63;;;1.40;;
20695;SDS011;10507;52.754;13.040;2023-05-16T12:14:23;7.25;;;1.67;;
20695;SDS011;10507;52.754;13.040;2023-05-16T12:16:54;5.57;;;1.42;;
20695;SDS011;10507;52.754;13.040;2023-05-16T12:19:23;8.30;;;1.58;;
20695;SDS011;10507;52.754;13.040;2023-05-16T12:21:51;6.07;;;1.00;;
20695;SDS011;10507;52.754;13.040;2023-05-16T12:24:22;6.22;;;1.67;;
20695;SDS011;10507;52.754;13.040;2023-05-16T12:26:56;6.72;;;1.30;;
20695;SDS011;10507;52.754;13.040;2023-05-16T12:29:24;7.90;;;1.60;;
20695;SDS011;10507;52.754;13.040;2023-05-16T12:31:52;5.97;;;1.35;;
20695;SDS011;10507;52.754;13.040;2023-05-16T12:34:20;6.70;;;1.48;;
20695;SDS011;10507;52.754;13.040;2023-05-16T12:36:51;4.95;;;1.10;;
20695;SDS011;10507;52.754;13.040;2023-05-16T12:39:20;6.35;;;1.20;;
20695;SDS011;10507;52.754;13.040;2023-05-16T12:41:49;5.93;;;1.30;;
20695;SDS011;10507;52.754;13.040;2023-05-16T12:44:17;8.48;;;1.67;;
20695;SDS011;10507;52.754;13.040;2023-05-16T12:46:49;6.90;;;1.35;;
20695;SDS011;10507;52.754;13.040;2023-05-16T12:49:18;6.15;;;1.42;;
20695;SDS011;10507;52.754;13.040;2023-05-16T12:51:48;6.13;;;1.35;;
20695;SDS011;10507;52.754;13.040;2023-05-16T12:54:17;4.35;;;1.00;;
20695;SDS011;10507;52.754;13.040;2023-05-16T12:56:47;9.80;;;1.95;;
20695;SDS011;10507;52.754;13.040;2023-05-16T12:59:15;7.20;;;1.52;;
20695;SDS011;10507;52.754;13.040;2023-05-16T13:01:44;7.88;;;1.23;;
20695;SDS011;10507;52.754;13.040;2023-05-16T13:04:12;7.40;;;1.25;;
20695;SDS011;10507;52.754;13.040;2023-05-16T13:06:44;5.25;;;1.60;;
20695;SDS011;10507;52.754;13.040;2023-05-16T13:09:24;5.88;;;1.17;;
20695;SDS011;10507;52.754;13.040;2023-05-16T13:11:58;6.40;;;1.55;;
20695;SDS011;10507;52.754;13.040;2023-05-16T13:14:26;5.68;;;1.00;;
20695;SDS011;10507;52.754;13.040;2023-05-16T13:16:54;4.47;;;1.25;;
20695;SDS011;10507;52.754;13.040;2023-05-16T13:19:22;6.00;;;1.63;;
20695;SDS011;10507;52.754;13.040;2023-05-16T13:21:51;6.63;;;1.42;;
20695;SDS011;10507;52.754;13.040;2023-05-16T13:24:19;7.50;;;1.05;;
20695;SDS011;10507;52.754;13.040;2023-05-16T13:26:46;6.47;;;1.60;;
20695;SDS011;10507;52.754;13.040;2023-05-16T13:29:15;7.50;;;1.65;;
20695;SDS011;10507;52.754;13.040;2023-05-16T13:31:43;7.00;;;1.67;;
20695;SDS011;10507;52.754;13.040;2023-05-16T13:34:11;6.43;;;1.00;;
20695;SDS011;10507;52.754;13.040;2023-05-16T13:36:39;7.63;;;1.77;;
20695;SDS011;10507;52.754;13.040;2023-05-16T13:39:14;4.40;;;1.17;;
20695;SDS011;10507;52.754;13.040;2023-05-16T13:41:43;5.22;;;0.98;;
20695;SDS011;10507;52.754;13.040;2023-05-16T13:44:15;3.20;;;1.02;;
20695;SDS011;10507;52.754;13.040;2023-05-16T13:46:43;7.13;;;1.42;;
20695;SDS011;10507;52.754;13.040;2023-05-16T13:49:11;6.72;;;1.55;;
20695;SDS011;10507;52.754;13.040;2023-05-16T13:51:39;5.07;;;0.90;;
20695;SDS011;10507;52.754;13.040;2023-05-16T13:54:06;4.40;;;1.27;;
20695;SDS011;10507;52.754;13.040;2023-05-16T13:56:34;2.88;;;0.80;;
20695;SDS011;10507;52.754;13.040;2023-05-16T13:59:02;4.63;;;0.90;;
20695;SDS011;10507;52.754;13.040;2023-05-16T14:01:34;7.40;;;1.42;;
20695;SDS011;10507;52.754;13.040;2023-05-16T14:04:02;5.90;;;1.17;;
20695;SDS011;10507;52.754;13.040;2023-05-16T14:06:30;5.85;;;0.80;;
20695;SDS011;10507;52.754;13.040;2023-05-16T14:08:58;3.70;;;1.13;;
20695;SDS011;10507;52.754;13.040;2023-05-16T14:11:26;5.32;;;1.23;;
20695;SDS011;10507;52.754;13.040;2023-05-16T14:13:55;3.92;;;0.88;;
20695;SDS011;10507;52.754;13.040;2023-05-16T14:16:23;3.47;;;0.70;;
20695;SDS011;10507;52.754;13.040;2023-05-16T14:18:52;5.22;;;0.82;;
20695;SDS011;10507;52.754;13.040;2023-05-16T14:21:20;3.30;;;0.85;;
20695;SDS011;10507;52.754;13.040;2023-05-16T14:23:48;3.55;;;0.95;;
20695;SDS011;10507;52.754;13.040;2023-05-16T14:26:16;4.35;;;0.98;;
20695;SDS011;10507;52.754;13.040;2023-05-16T14:28:47;7.65;;;0.98;;
20695;SDS011;10507;52.754;13.040;2023-05-16T14:31:16;9.63;;;1.80;;
20695;SDS011;10507;52.754;13.040;2023-05-16T14:33:44;6.15;;;1.05;;
20695;SDS011;10507;52.754;13.040;2023-05-16T14:36:13;6.55;;;1.13;;
20695;SDS011;10507;52.754;13.040;2023-05-16T14:38:42;9.48;;;0.85;;